CheckWX is a tool to help pilots better visualize weather data.  It is not intended as a substitute for an official pre-flight weather briefing.

07:20:57 UTC

KMKE TAF
General Mitchell International Airport
Milwaukee, Wisconsin, USA
KMKE 210520Z 2106/2212 16005KT 3SM BR FEW250 TEMPO 2106/2109 2SM BR BKN025 FM211000 19006KT P6SM SCT100 FM211400 20010G19KT P6SM BKN035 FM211600 19015G24KT 6SM -SHRA VCTS BKN025CB FM212300 20016G25KT P6SM VCTS OVC025CB FM220700 21012G24KT 4SM -SHRA BR VCTS OVC025CB

Sep-21@
06:00 UTC

Sep-21 @ 06:00 UTC

Sep-21@
10:00 UTC

Sep-21 @ 10:00 UTC

KMKE 210520Z 2106/2212 16005KT 3SM BR FEW250
Wind
  • 160° at 5 KTS
Conditions
Mist
Cloud Levels
  • Few at 25,000' AGL

Sep-21@
06:00 UTC

Sep-21 @ 06:00 UTC

Sep-21@
09:00 UTC

Sep-21 @ 09:00 UTC

TEMPO 2106/2109 2SM BR BKN025

Temporary

Temporary Changes expected for less than half the time period

Conditions
Mist
Cloud Levels
  • Broken at 2,500' AGL

Sep-21@
10:00 UTC

Sep-21 @ 10:00 UTC

Sep-21@
14:00 UTC

Sep-21 @ 14:00 UTC

FM211000 19006KT P6SM SCT100

From

From Standard forecast or significant change

Wind
  • 190° at 6 KTS
Cloud Levels
  • Scattered at 10,000' AGL

Sep-21@
14:00 UTC

Sep-21 @ 14:00 UTC

Sep-21@
16:00 UTC

Sep-21 @ 16:00 UTC

FM211400 20010G19KT P6SM BKN035

From

From Standard forecast or significant change

Wind
  • 200° at 10 KTS
  • {Gusting to 19 KTS
Cloud Levels
  • Broken at 3,500' AGL

Sep-21@
16:00 UTC

Sep-21 @ 16:00 UTC

Sep-21@
23:00 UTC

Sep-21 @ 23:00 UTC

FM211600 19015G24KT 6SM -SHRA VCTS BKN025CB

From

From Standard forecast or significant change

Wind
  • 190° at 15 KTS
  • {Gusting to 24 KTS
Conditions
Light Rain, Area Thunderstorm
Cloud Levels
  • Broken at 2,500' AGL

Sep-21@
23:00 UTC

Sep-21 @ 23:00 UTC

Sep-22@
07:00 UTC

Sep-22 @ 07:00 UTC

FM212300 20016G25KT P6SM VCTS OVC025CB

From

From Standard forecast or significant change

Wind
  • 200° at 16 KTS
  • {Gusting to 25 KTS
Conditions
Area Thunderstorm
Cloud Levels
  • Overcast at 2,500' AGL

Sep-22@
07:00 UTC

Sep-22 @ 07:00 UTC

Sep-22@
12:00 UTC

Sep-22 @ 12:00 UTC

FM220700 21012G24KT 4SM -SHRA BR VCTS OVC025CB

From

From Standard forecast or significant change

Wind
  • 210° at 12 KTS
  • {Gusting to 24 KTS
Conditions
Light Rain, Mist, Area Thunderstorm
Cloud Levels
  • Overcast at 2,500' AGL